sensor_id;sensor_type;location;lat;lon;timestamp;P1;durP1;ratioP1;P2;durP2;ratioP2
4527;SDS011;62320;51.520;6.818;2023-01-26T00:01:38;80.80;;;23.77;;
4527;SDS011;62320;51.520;6.818;2023-01-26T00:11:40;72.33;;;21.47;;
4527;SDS011;62320;51.520;6.818;2023-01-26T00:21:41;90.38;;;23.58;;
4527;SDS011;62320;51.520;6.818;2023-01-26T00:31:43;89.70;;;24.30;;
4527;SDS011;62320;51.520;6.818;2023-01-26T00:41:44;87.27;;;24.60;;
4527;SDS011;62320;51.520;6.818;2023-01-26T00:52:05;80.78;;;23.92;;
4527;SDS011;62320;51.520;6.818;2023-01-26T01:02:06;83.73;;;24.47;;
4527;SDS011;62320;51.520;6.818;2023-01-26T01:12:08;96.30;;;24.60;;
4527;SDS011;62320;51.520;6.818;2023-01-26T01:22:09;99.63;;;27.90;;
4527;SDS011;62320;51.520;6.818;2023-01-26T01:32:11;97.18;;;25.45;;
4527;SDS011;62320;51.520;6.818;2023-01-26T01:42:12;61.83;;;19.33;;
4527;SDS011;62320;51.520;6.818;2023-01-26T01:52:15;100.07;;;27.47;;
4527;SDS011;62320;51.520;6.818;2023-01-26T02:02:19;83.68;;;25.77;;
4527;SDS011;62320;51.520;6.818;2023-01-26T02:12:33;78.10;;;22.03;;
4527;SDS011;62320;51.520;6.818;2023-01-26T02:22:44;71.00;;;19.80;;
4527;SDS011;62320;51.520;6.818;2023-01-26T02:32:55;88.45;;;22.67;;
4527;SDS011;62320;51.520;6.818;2023-01-26T02:42:57;72.17;;;20.77;;
4527;SDS011;62320;51.520;6.818;2023-01-26T02:52:58;75.23;;;20.27;;
4527;SDS011;62320;51.520;6.818;2023-01-26T03:03:01;75.55;;;22.08;;
4527;SDS011;62320;51.520;6.818;2023-01-26T03:13:13;77.97;;;22.48;;
4527;SDS011;62320;51.520;6.818;2023-01-26T03:23:15;76.20;;;22.37;;
4527;SDS011;62320;51.520;6.818;2023-01-26T03:33:35;83.63;;;20.77;;
4527;SDS011;62320;51.520;6.818;2023-01-26T03:43:37;75.70;;;18.23;;
4527;SDS011;62320;51.520;6.818;2023-01-26T03:53:57;66.73;;;19.83;;
4527;SDS011;62320;51.520;6.818;2023-01-26T04:04:16;73.10;;;18.93;;
4527;SDS011;62320;51.520;6.818;2023-01-26T04:14:36;74.45;;;20.67;;
4527;SDS011;62320;51.520;6.818;2023-01-26T04:24:56;67.00;;;17.13;;
4527;SDS011;62320;51.520;6.818;2023-01-26T04:34:58;70.07;;;20.80;;
4527;SDS011;62320;51.520;6.818;2023-01-26T04:44:59;70.07;;;20.50;;
4527;SDS011;62320;51.520;6.818;2023-01-26T04:55:01;55.03;;;17.80;;
4527;SDS011;62320;51.520;6.818;2023-01-26T05:05:02;45.50;;;11.73;;
4527;SDS011;62320;51.520;6.818;2023-01-26T05:15:04;59.60;;;17.40;;
4527;SDS011;62320;51.520;6.818;2023-01-26T05:25:06;62.17;;;16.50;;
4527;SDS011;62320;51.520;6.818;2023-01-26T05:35:08;56.27;;;14.87;;
4527;SDS011;62320;51.520;6.818;2023-01-26T05:45:10;53.83;;;15.83;;
4527;SDS011;62320;51.520;6.818;2023-01-26T05:55:11;60.53;;;17.30;;
4527;SDS011;62320;51.520;6.818;2023-01-26T06:05:13;56.40;;;16.57;;
4527;SDS011;62320;51.520;6.818;2023-01-26T06:15:15;64.10;;;18.43;;
4527;SDS011;62320;51.520;6.818;2023-01-26T06:25:16;56.03;;;17.13;;
4527;SDS011;62320;51.520;6.818;2023-01-26T06:35:18;59.58;;;16.58;;
4527;SDS011;62320;51.520;6.818;2023-01-26T06:45:19;53.93;;;15.20;;
4527;SDS011;62320;51.520;6.818;2023-01-26T06:55:21;65.07;;;15.90;;
4527;SDS011;62320;51.520;6.818;2023-01-26T07:05:27;51.75;;;14.48;;
4527;SDS011;62320;51.520;6.818;2023-01-26T07:15:28;52.30;;;13.83;;
4527;SDS011;62320;51.520;6.818;2023-01-26T07:25:30;53.27;;;14.63;;
4527;SDS011;62320;51.520;6.818;2023-01-26T07:35:31;52.38;;;16.40;;
4527;SDS011;62320;51.520;6.818;2023-01-26T07:45:33;57.20;;;15.70;;
4527;SDS011;62320;51.520;6.818;2023-01-26T07:55:36;48.60;;;15.20;;
4527;SDS011;62320;51.520;6.818;2023-01-26T08:05:37;55.53;;;14.50;;
4527;SDS011;62320;51.520;6.818;2023-01-26T08:15:39;60.83;;;17.45;;
4527;SDS011;62320;51.520;6.818;2023-01-26T08:25:40;41.67;;;13.97;;
4527;SDS011;62320;51.520;6.818;2023-01-26T08:35:49;51.50;;;15.03;;
4527;SDS011;62320;51.520;6.818;2023-01-26T08:45:51;47.58;;;12.68;;
4527;SDS011;62320;51.520;6.818;2023-01-26T08:55:52;41.20;;;12.43;;
4527;SDS011;62320;51.520;6.818;2023-01-26T09:05:57;35.37;;;11.40;;
4527;SDS011;62320;51.520;6.818;2023-01-26T09:16:07;42.60;;;11.75;;
4527;SDS011;62320;51.520;6.818;2023-01-26T09:26:15;37.70;;;12.50;;
4527;SDS011;62320;51.520;6.818;2023-01-26T09:36:17;31.67;;;9.93;;
4527;SDS011;62320;51.520;6.818;2023-01-26T09:46:41;36.05;;;12.23;;
4527;SDS011;62320;51.520;6.818;2023-01-26T09:56:52;39.80;;;11.25;;
4527;SDS011;62320;51.520;6.818;2023-01-26T10:06:55;49.43;;;12.87;;
4527;SDS011;62320;51.520;6.818;2023-01-26T10:16:57;29.10;;;8.23;;
4527;SDS011;62320;51.520;6.818;2023-01-26T10:27:01;25.10;;;7.82;;
4527;SDS011;62320;51.520;6.818;2023-01-26T10:47:25;16.43;;;4.97;;
4527;SDS011;62320;51.520;6.818;2023-01-26T10:57:29;21.45;;;7.15;;
4527;SDS011;62320;51.520;6.818;2023-01-26T11:07:39;17.97;;;6.00;;
4527;SDS011;62320;51.520;6.818;2023-01-26T11:17:54;18.00;;;7.03;;
4527;SDS011;62320;51.520;6.818;2023-01-26T11:59:24;20.87;;;8.43;;
4527;SDS011;62320;51.520;6.818;2023-01-26T12:09:37;23.55;;;7.25;;
4527;SDS011;62320;51.520;6.818;2023-01-26T12:30:23;18.57;;;6.07;;
4527;SDS011;62320;51.520;6.818;2023-01-26T12:40:29;18.08;;;5.25;;
4527;SDS011;62320;51.520;6.818;2023-01-26T13:10:53;36.47;;;10.95;;
4527;SDS011;62320;51.520;6.818;2023-01-26T13:20:55;35.53;;;10.18;;
4527;SDS011;62320;51.520;6.818;2023-01-26T13:31:03;43.80;;;11.80;;
4527;SDS011;62320;51.520;6.818;2023-01-26T13:41:07;40.60;;;10.93;;
4527;SDS011;62320;51.520;6.818;2023-01-26T13:51:15;33.05;;;10.20;;
4527;SDS011;62320;51.520;6.818;2023-01-26T14:01:21;33.53;;;9.30;;
4527;SDS011;62320;51.520;6.818;2023-01-26T14:11:23;34.80;;;9.70;;
4527;SDS011;62320;51.520;6.818;2023-01-26T14:21:26;30.05;;;8.88;;
4527;SDS011;62320;51.520;6.818;2023-01-26T14:31:29;40.40;;;13.53;;
4527;SDS011;62320;51.520;6.818;2023-01-26T14:41:33;37.73;;;11.23;;
4527;SDS011;62320;51.520;6.818;2023-01-26T14:51:37;37.17;;;10.75;;
4527;SDS011;62320;51.520;6.818;2023-01-26T15:01:39;34.53;;;9.95;;
4527;SDS011;62320;51.520;6.818;2023-01-26T15:11:40;34.57;;;9.10;;
4527;SDS011;62320;51.520;6.818;2023-01-26T15:22:01;31.70;;;8.23;;
4527;SDS011;62320;51.520;6.818;2023-01-26T15:32:02;32.78;;;8.45;;
4527;SDS011;62320;51.520;6.818;2023-01-26T15:42:11;28.27;;;7.67;;
4527;SDS011;62320;51.520;6.818;2023-01-26T15:52:15;30.03;;;7.77;;
4527;SDS011;62320;51.520;6.818;2023-01-26T16:02:23;23.85;;;8.35;;
4527;SDS011;62320;51.520;6.818;2023-01-26T16:12:24;28.37;;;7.83;;
4527;SDS011;62320;51.520;6.818;2023-01-26T16:22:32;30.27;;;9.87;;
4527;SDS011;62320;51.520;6.818;2023-01-26T16:32:34;32.88;;;8.73;;
4527;SDS011;62320;51.520;6.818;2023-01-26T16:42:36;32.50;;;9.43;;
4527;SDS011;62320;51.520;6.818;2023-01-26T16:52:40;34.70;;;9.70;;
4527;SDS011;62320;51.520;6.818;2023-01-26T17:02:42;29.23;;;8.93;;
4527;SDS011;62320;51.520;6.818;2023-01-26T17:12:47;30.63;;;9.73;;
4527;SDS011;62320;51.520;6.818;2023-01-26T17:22:49;40.93;;;13.10;;
4527;SDS011;62320;51.520;6.818;2023-01-26T17:32:51;28.30;;;10.83;;
4527;SDS011;62320;51.520;6.818;2023-01-26T17:42:52;33.78;;;11.15;;
4527;SDS011;62320;51.520;6.818;2023-01-26T17:52:54;29.03;;;10.17;;
4527;SDS011;62320;51.520;6.818;2023-01-26T18:02:55;34.37;;;11.00;;
4527;SDS011;62320;51.520;6.818;2023-01-26T18:12:57;38.58;;;12.75;;
4527;SDS011;62320;51.520;6.818;2023-01-26T18:22:58;33.72;;;12.68;;
4527;SDS011;62320;51.520;6.818;2023-01-26T18:33:00;45.00;;;15.00;;
4527;SDS011;62320;51.520;6.818;2023-01-26T18:43:02;34.23;;;14.07;;
4527;SDS011;62320;51.520;6.818;2023-01-26T18:53:04;58.97;;;19.20;;
4527;SDS011;62320;51.520;6.818;2023-01-26T19:03:05;67.47;;;23.67;;
4527;SDS011;62320;51.520;6.818;2023-01-26T19:13:07;32.43;;;12.93;;
4527;SDS011;62320;51.520;6.818;2023-01-26T19:23:08;24.00;;;9.55;;
4527;SDS011;62320;51.520;6.818;2023-01-26T19:33:10;18.20;;;6.90;;
4527;SDS011;62320;51.520;6.818;2023-01-26T19:43:23;15.77;;;5.40;;
4527;SDS011;62320;51.520;6.818;2023-01-26T19:53:26;11.07;;;4.57;;
4527;SDS011;62320;51.520;6.818;2023-01-26T20:03:28;17.88;;;5.18;;
4527;SDS011;62320;51.520;6.818;2023-01-26T20:13:30;9.67;;;3.43;;
4527;SDS011;62320;51.520;6.818;2023-01-26T20:23:32;15.03;;;4.50;;
4527;SDS011;62320;51.520;6.818;2023-01-26T20:33:37;4.85;;;1.95;;
4527;SDS011;62320;51.520;6.818;2023-01-26T20:43:39;11.87;;;4.30;;
4527;SDS011;62320;51.520;6.818;2023-01-26T20:53:49;22.27;;;7.03;;
4527;SDS011;62320;51.520;6.818;2023-01-26T21:03:51;50.75;;;12.75;;
4527;SDS011;62320;51.520;6.818;2023-01-26T21:13:57;19.83;;;6.80;;
4527;SDS011;62320;51.520;6.818;2023-01-26T21:24:01;10.93;;;3.77;;
4527;SDS011;62320;51.520;6.818;2023-01-26T21:34:02;5.57;;;1.95;;
4527;SDS011;62320;51.520;6.818;2023-01-26T21:44:05;9.30;;;2.65;;
4527;SDS011;62320;51.520;6.818;2023-01-26T21:54:08;9.90;;;2.33;;
4527;SDS011;62320;51.520;6.818;2023-01-26T22:04:11;3.70;;;1.17;;
4527;SDS011;62320;51.520;6.818;2023-01-26T22:14:15;7.90;;;1.77;;
4527;SDS011;62320;51.520;6.818;2023-01-26T22:24:21;16.73;;;3.80;;
4527;SDS011;62320;51.520;6.818;2023-01-26T22:34:23;4.37;;;1.10;;
4527;SDS011;62320;51.520;6.818;2023-01-26T22:44:24;10.30;;;2.30;;
4527;SDS011;62320;51.520;6.818;2023-01-26T22:54:27;7.40;;;0.93;;
4527;SDS011;62320;51.520;6.818;2023-01-26T23:04:28;13.27;;;3.30;;
4527;SDS011;62320;51.520;6.818;2023-01-26T23:14:30;8.30;;;2.28;;
4527;SDS011;62320;51.520;6.818;2023-01-26T23:24:32;10.70;;;3.55;;
4527;SDS011;62320;51.520;6.818;2023-01-26T23:34:34;11.43;;;2.30;;
4527;SDS011;62320;51.520;6.818;2023-01-26T23:44:35;8.73;;;1.80;;
4527;SDS011;62320;51.520;6.818;2023-01-26T23:54:37;6.35;;;1.27;;
